Terminal Aerodrome Forecast
Issued by NWS Paducah, KY

Home | Current Version | Previous Version | Text Only | Print | Product List | Glossary On
Versions: 1 2 3 4 5 6 7 8 9 10 11 12 13 14 15 16 17 18 19
000
FTUS43 KPAH 051120
TAFPAH
TAF
KPAH 051120Z 0512/0612 00000KT 4SM BR SKC
     FM051400 10002KT P6SM SKC
     FM051530 09004KT P6SM SCT060
     FM060100 00000KT P6SM SKC
      TEMPO 0609/0612 5SM BR=

USA.gov is the U.S. government's official web portal to all federal, state and local government web resources and services.